createdAt,value
2022-12-01T00:01:57.419Z,1.09
2022-12-01T00:04:23.882Z,0.99
2022-12-01T00:06:50.319Z,0.90
2022-12-01T00:09:35.354Z,0.96
2022-12-01T00:12:01.822Z,1.16
2022-12-01T00:14:28.223Z,1.12
2022-12-01T00:16:54.751Z,1.07
2022-12-01T00:19:27.371Z,1.03
2022-12-01T00:21:54.057Z,1.14
2022-12-01T00:24:21.606Z,1.28
2022-12-01T00:26:47.990Z,1.29
2022-12-01T00:29:14.581Z,1.25
2022-12-01T00:31:41.024Z,1.23
2022-12-01T00:34:11.282Z,1.23
2022-12-01T00:36:38.161Z,1.35
2022-12-01T00:39:04.621Z,1.22
2022-12-01T00:41:31.025Z,1.10
2022-12-01T00:43:57.490Z,1.00
2022-12-01T00:46:24.151Z,0.97
2022-12-01T00:48:50.605Z,1.07
2022-12-01T00:51:19.158Z,1.15
2022-12-01T00:53:46.181Z,1.01
2022-12-01T00:56:12.619Z,0.96
2022-12-01T00:58:39.051Z,0.94
2022-12-01T01:01:05.656Z,1.00
2022-12-01T01:03:33.132Z,1.15
2022-12-01T01:06:10.508Z,1.03
2022-12-01T01:08:37.019Z,0.99
2022-12-01T01:11:04.117Z,1.00
2022-12-01T01:13:31.045Z,1.10
2022-12-01T01:15:59.939Z,1.25
2022-12-01T01:18:27.042Z,1.20
2022-12-01T01:20:57.682Z,1.23
2022-12-01T01:23:24.166Z,1.20
2022-12-01T01:25:50.595Z,1.11
2022-12-01T01:28:17.246Z,1.18
2022-12-01T01:30:43.793Z,1.24
2022-12-01T01:33:10.394Z,1.17
2022-12-01T01:35:36.795Z,1.12
2022-12-01T01:38:03.542Z,1.08
2022-12-01T01:40:29.977Z,1.10
2022-12-01T01:42:56.365Z,1.25
2022-12-01T01:45:24.272Z,1.19
2022-12-01T01:47:52.226Z,1.11
2022-12-01T01:50:20.361Z,1.06
2022-12-01T01:52:48.657Z,1.02
2022-12-01T01:55:15.852Z,0.99
2022-12-01T01:57:43.330Z,1.06
2022-12-01T02:00:11.716Z,1.20
2022-12-01T02:02:40.795Z,1.14
2022-12-01T02:05:11.226Z,1.09
2022-12-01T02:07:38.658Z,1.04
2022-12-01T02:10:06.563Z,1.06
2022-12-01T02:12:54.050Z,1.21
2022-12-01T02:15:29.741Z,1.14
2022-12-01T02:17:56.885Z,1.09
2022-12-01T02:20:23.278Z,1.07
2022-12-01T02:23:14.678Z,1.06
2022-12-01T02:25:53.019Z,1.17
2022-12-01T02:28:42.707Z,1.23
2022-12-01T02:31:15.343Z,1.16
2022-12-01T02:33:46.611Z,1.15
2022-12-01T02:36:12.977Z,1.25
2022-12-01T02:38:43.618Z,1.36
2022-12-01T02:41:24.528Z,1.46
2022-12-01T02:43:56.818Z,1.43
2022-12-01T02:46:27.247Z,1.50
2022-12-01T02:48:59.645Z,1.47
2022-12-01T02:51:30.819Z,1.40
2022-12-01T02:53:58.745Z,1.51
2022-12-01T02:56:25.828Z,1.53
2022-12-01T02:58:52.351Z,1.51
2022-12-01T03:01:42.430Z,1.45
2022-12-01T03:04:09.690Z,1.45
2022-12-01T03:06:37.212Z,1.44
2022-12-01T03:09:27.457Z,1.55
2022-12-01T03:11:57.213Z,1.45
2022-12-01T03:14:29.418Z,1.39
2022-12-01T03:16:59.922Z,1.38
2022-12-01T03:19:32.738Z,1.35
2022-12-01T03:22:04.489Z,1.48
2022-12-01T03:24:34.770Z,1.47
2022-12-01T03:27:02.425Z,1.40
2022-12-01T03:29:39.962Z,1.36
2022-12-01T03:32:29.481Z,1.34
2022-12-01T03:35:12.992Z,1.35
2022-12-01T03:38:08.618Z,1.49
2022-12-01T03:40:39.523Z,1.42
2022-12-01T03:43:11.783Z,1.47
2022-12-01T03:45:56.141Z,1.56
2022-12-01T03:48:24.211Z,1.45
2022-12-01T03:51:01.146Z,1.41
2022-12-01T03:53:30.885Z,1.52
2022-12-01T03:56:01.333Z,1.56
2022-12-01T03:58:34.163Z,1.56
2022-12-01T04:01:04.213Z,1.62
2022-12-01T04:03:30.898Z,1.64
2022-12-01T04:05:58.092Z,1.59
2022-12-01T04:08:24.534Z,1.62
2022-12-01T04:10:51.249Z,1.55
2022-12-01T04:13:23.713Z,1.56
2022-12-01T04:15:53.317Z,1.59
2022-12-01T04:18:20.813Z,1.66
2022-12-01T04:20:50.633Z,1.63
2022-12-01T04:23:35.572Z,1.65
2022-12-01T04:26:03.114Z,1.69
2022-12-01T04:28:29.703Z,1.74
2022-12-01T04:30:56.211Z,1.74
2022-12-01T04:33:22.741Z,1.78
2022-12-01T04:35:58.948Z,1.82
2022-12-01T04:38:30.251Z,1.80
2022-12-01T04:40:57.359Z,1.83
2022-12-01T04:43:23.798Z,1.86
2022-12-01T04:45:50.207Z,1.90
2022-12-01T04:48:16.701Z,1.93
2022-12-01T04:50:43.200Z,1.73
2022-12-01T04:53:09.640Z,1.35
2022-12-01T04:55:39.458Z,1.19
2022-12-01T04:58:06.424Z,1.25
2022-12-01T05:00:33.425Z,1.43
2022-12-01T05:03:00.155Z,1.28
2022-12-01T05:05:29.350Z,1.18
2022-12-01T05:07:57.991Z,1.12
2022-12-01T05:10:24.749Z,1.07
2022-12-01T05:12:51.410Z,1.02
2022-12-01T05:15:18.055Z,1.11
2022-12-01T05:17:45.326Z,1.19
2022-12-01T05:20:36.488Z,1.08
2022-12-01T05:23:05.740Z,0.92
2022-12-01T05:25:33.017Z,0.76
2022-12-01T05:27:59.746Z,0.82
2022-12-01T05:30:28.907Z,0.82
2022-12-01T05:32:55.661Z,1.00
2022-12-01T05:35:24.448Z,1.03
2022-12-01T05:37:50.893Z,0.93
2022-12-01T05:40:17.339Z,0.90
2022-12-01T05:42:43.791Z,0.89
2022-12-01T05:45:10.479Z,0.88
2022-12-01T05:47:39.143Z,0.91
2022-12-01T05:50:07.613Z,1.07
2022-12-01T05:52:35.169Z,0.86
2022-12-01T05:55:05.102Z,0.78
2022-12-01T05:57:31.975Z,0.78
2022-12-01T05:59:58.438Z,0.77
2022-12-01T06:02:26.890Z,0.72
2022-12-01T06:04:53.797Z,0.69
2022-12-01T06:07:20.854Z,0.63
2022-12-01T06:09:48.260Z,0.60
2022-12-01T06:12:14.843Z,0.63
2022-12-01T06:14:41.549Z,0.64
2022-12-01T06:17:08.666Z,0.68
2022-12-01T06:19:38.050Z,0.66
2022-12-01T06:22:04.722Z,0.58
2022-12-01T06:24:31.106Z,0.67
2022-12-01T06:26:57.581Z,0.81
2022-12-01T06:29:23.973Z,0.74
2022-12-01T06:31:50.471Z,0.72
2022-12-01T06:34:16.932Z,0.89
2022-12-01T06:36:43.377Z,0.84
2022-12-01T06:39:13.034Z,0.85
2022-12-01T06:41:39.493Z,0.90
2022-12-01T06:44:05.942Z,0.81
2022-12-01T06:46:32.384Z,0.85
2022-12-01T06:49:00.807Z,0.86
2022-12-01T06:51:27.404Z,0.80
2022-12-01T06:54:05.080Z,0.83
2022-12-01T06:56:31.974Z,0.84
2022-12-01T06:58:58.664Z,0.97
2022-12-01T07:01:26.174Z,1.06
2022-12-01T07:03:52.647Z,0.87
2022-12-01T07:06:19.075Z,0.45
2022-12-01T07:08:45.675Z,0.29
2022-12-01T07:11:13.457Z,0.37
2022-12-01T07:13:40.958Z,0.56
2022-12-01T07:16:09.507Z,0.33
2022-12-01T07:18:37.189Z,0.24
2022-12-01T07:21:04.653Z,0.40
2022-12-01T07:23:31.353Z,0.47
2022-12-01T07:26:00.697Z,0.34
2022-12-01T07:28:27.706Z,0.31
2022-12-01T07:30:54.306Z,0.39
2022-12-01T07:33:20.832Z,0.61
2022-12-01T07:35:47.328Z,0.45
2022-12-01T07:38:16.596Z,0.41
2022-12-01T07:40:47.102Z,0.36
2022-12-01T07:43:13.698Z,0.45
2022-12-01T07:45:40.241Z,0.56
2022-12-01T07:48:06.769Z,0.43
2022-12-01T07:50:35.990Z,0.41
2022-12-01T07:53:04.578Z,0.60
2022-12-01T07:55:31.268Z,0.51
2022-12-01T07:57:59.335Z,0.45
2022-12-01T08:00:25.859Z,0.42
2022-12-01T08:02:52.484Z,0.44
2022-12-01T08:05:19.132Z,0.59
2022-12-01T08:07:45.749Z,0.62
2022-12-01T08:10:12.456Z,0.56
2022-12-01T08:12:38.909Z,0.54
2022-12-01T08:15:05.624Z,0.53
2022-12-01T08:17:32.898Z,0.67
2022-12-01T08:20:00.122Z,0.72
2022-12-01T08:22:26.527Z,0.64
2022-12-01T08:24:52.989Z,0.63
2022-12-01T08:27:19.465Z,0.64
2022-12-01T08:29:45.940Z,0.76
2022-12-01T08:32:12.403Z,0.87
2022-12-01T08:34:38.961Z,0.73
2022-12-01T08:37:05.471Z,0.69
2022-12-01T08:39:31.993Z,0.67
2022-12-01T08:41:58.481Z,0.76
2022-12-01T08:44:24.937Z,0.89
2022-12-01T08:46:51.508Z,0.83
2022-12-01T08:49:17.938Z,0.86
2022-12-01T08:51:44.410Z,0.90
2022-12-01T08:54:11.626Z,1.03
2022-12-01T08:56:42.058Z,1.03
2022-12-01T08:59:09.081Z,0.97
2022-12-01T09:01:52.143Z,1.02
2022-12-01T09:04:22.738Z,1.16
2022-12-01T09:06:50.119Z,1.23
2022-12-01T09:09:20.951Z,1.31
2022-12-01T09:11:47.871Z,1.41
2022-12-01T09:14:15.258Z,1.48
2022-12-01T09:16:43.533Z,1.52
2022-12-01T09:19:13.214Z,1.55
2022-12-01T09:21:40.530Z,1.55
2022-12-01T09:24:07.413Z,1.55
2022-12-01T09:26:34.230Z,1.62
2022-12-01T09:29:06.598Z,1.68
2022-12-01T09:31:33.598Z,1.70
2022-12-01T09:34:03.550Z,1.69
2022-12-01T09:36:31.552Z,1.74
2022-12-01T09:38:58.358Z,1.76
2022-12-01T09:41:33.115Z,1.78
2022-12-01T09:44:13.972Z,1.80
2022-12-01T09:46:46.908Z,1.83
2022-12-01T09:49:19.012Z,1.84
2022-12-01T09:51:45.679Z,1.85
2022-12-01T09:54:13.436Z,1.83
2022-12-01T09:56:43.397Z,1.81
2022-12-01T09:59:16.075Z,1.80
2022-12-01T10:01:43.400Z,1.80
2022-12-01T10:04:13.829Z,1.81
2022-12-01T10:06:43.775Z,1.83
2022-12-01T10:09:25.658Z,1.89
2022-12-01T10:11:55.015Z,1.96
2022-12-01T10:14:22.144Z,1.96
2022-12-01T10:16:49.910Z,1.98
2022-12-01T10:19:16.345Z,1.96
2022-12-01T10:22:09.779Z,1.98
2022-12-01T10:24:58.114Z,1.96
2022-12-01T10:27:36.790Z,2.01
2022-12-01T10:30:10.015Z,2.01
2022-12-01T10:32:44.982Z,2.01
2022-12-01T10:35:21.830Z,2.04
2022-12-01T10:37:51.347Z,2.07
2022-12-01T10:40:18.212Z,2.09
2022-12-01T10:42:46.764Z,2.11
2022-12-01T10:45:18.637Z,2.07
2022-12-01T10:48:03.798Z,2.13
2022-12-01T10:50:30.221Z,2.14
2022-12-01T10:52:56.638Z,2.17
2022-12-01T10:55:23.086Z,2.18
2022-12-01T10:57:49.936Z,2.19
2022-12-01T11:00:51.348Z,2.20
2022-12-01T11:03:21.792Z,2.19
2022-12-01T11:05:53.396Z,2.20
2022-12-01T11:08:24.046Z,2.20
2022-12-01T11:10:50.851Z,2.19
2022-12-01T11:13:25.086Z,2.19
2022-12-01T11:15:56.046Z,2.20
2022-12-01T11:18:29.192Z,2.19
2022-12-01T11:21:05.530Z,2.17
2022-12-01T11:23:32.086Z,2.19
2022-12-01T11:26:12.100Z,2.16
2022-12-01T11:28:42.250Z,2.17
2022-12-01T11:31:09.771Z,2.17
2022-12-01T11:33:44.195Z,2.15
2022-12-01T11:36:16.048Z,2.16
2022-12-01T11:38:42.926Z,2.18
2022-12-01T11:41:20.007Z,2.18
2022-12-01T11:43:53.201Z,2.16
2022-12-01T11:46:50.315Z,2.13
2022-12-01T11:49:20.789Z,2.12
2022-12-01T11:51:49.379Z,2.16
2022-12-01T11:54:20.404Z,2.16
2022-12-01T11:56:52.741Z,2.13
2022-12-01T11:59:31.146Z,2.12
2022-12-01T12:02:16.350Z,2.13
2022-12-01T12:05:05.716Z,2.15
2022-12-01T12:07:38.391Z,2.14
2022-12-01T12:10:17.273Z,2.12
2022-12-01T12:12:49.761Z,2.07
2022-12-01T12:15:19.025Z,2.06
2022-12-01T12:17:46.843Z,2.09
2022-12-01T12:20:26.351Z,2.11
2022-12-01T12:22:56.089Z,2.16
2022-12-01T12:25:34.506Z,2.15
2022-12-01T12:28:21.610Z,2.15
2022-12-01T12:30:57.342Z,2.19
2022-12-01T12:33:41.317Z,2.17
2022-12-01T12:36:21.197Z,2.17
2022-12-01T12:38:47.658Z,2.16
2022-12-01T12:41:23.628Z,2.14
2022-12-01T12:43:53.221Z,2.13
2022-12-01T12:46:31.279Z,2.13
2022-12-01T12:49:19.215Z,2.11
2022-12-01T12:51:51.077Z,2.08
2022-12-01T12:54:17.549Z,2.10
2022-12-01T12:56:46.719Z,2.12
2022-12-01T12:59:20.440Z,2.13
2022-12-01T13:01:57.724Z,2.11
2022-12-01T13:04:35.464Z,2.12
2022-12-01T13:07:22.213Z,2.12
2022-12-01T13:12:33.764Z,2.16
2022-12-01T13:15:15.506Z,2.18
2022-12-01T13:17:46.286Z,2.17
2022-12-01T13:20:18.411Z,2.19
2022-12-01T13:22:47.761Z,2.23
2022-12-01T13:25:15.955Z,2.21
2022-12-01T13:27:43.694Z,2.20
2022-12-01T13:30:21.615Z,2.20
2022-12-01T13:32:48.666Z,2.19
2022-12-01T13:35:24.408Z,2.22
2022-12-01T13:37:51.198Z,2.17
2022-12-01T13:40:25.539Z,2.18
2022-12-01T13:43:03.073Z,2.17
2022-12-01T13:45:35.434Z,2.18
2022-12-01T13:48:02.469Z,2.17
2022-12-01T13:50:43.180Z,2.20
2022-12-01T13:53:12.831Z,2.20
2022-12-01T13:55:58.100Z,2.23
2022-12-01T13:58:26.414Z,2.24
2022-12-01T14:00:53.110Z,1.85
2022-12-01T14:03:19.707Z,1.59
2022-12-01T14:05:52.182Z,1.67
2022-12-01T14:08:23.776Z,1.82
2022-12-01T14:11:15.804Z,1.74
2022-12-01T14:13:49.236Z,1.45
2022-12-01T14:16:15.741Z,1.45
2022-12-01T14:19:02.649Z,1.62
2022-12-01T14:21:46.857Z,1.46
2022-12-01T14:24:24.550Z,1.31
2022-12-01T14:26:51.642Z,1.47
2022-12-01T14:29:31.707Z,1.42
2022-12-01T14:32:02.999Z,1.30
2022-12-01T14:34:34.913Z,1.37
2022-12-01T14:37:05.702Z,1.53
2022-12-01T14:39:34.190Z,1.36
2022-12-01T14:42:03.127Z,1.31
2022-12-01T14:44:38.015Z,1.42
2022-12-01T14:47:06.825Z,1.35
2022-12-01T14:50:02.819Z,1.26
2022-12-01T14:52:31.041Z,1.37
2022-12-01T14:54:59.161Z,1.43
2022-12-01T14:57:34.292Z,1.30
2022-12-01T15:00:20.992Z,1.30
2022-12-01T15:02:52.300Z,1.46
2022-12-01T15:05:20.794Z,1.32
2022-12-01T15:07:49.137Z,1.25
2022-12-01T15:10:20.610Z,1.36
2022-12-01T15:12:48.351Z,1.37
2022-12-01T15:15:19.756Z,1.28
2022-12-01T15:17:49.382Z,1.24
2022-12-01T15:20:28.079Z,1.40
2022-12-01T15:22:56.794Z,1.31
2022-12-01T15:25:23.569Z,1.21
2022-12-01T15:28:06.508Z,1.34
2022-12-01T15:30:33.090Z,1.34
2022-12-01T15:33:02.079Z,1.30
2022-12-01T15:35:28.665Z,1.33
2022-12-01T15:37:55.812Z,1.44
2022-12-01T15:43:22.605Z,1.27
2022-12-01T15:45:51.131Z,1.42
2022-12-01T15:48:26.716Z,1.33
2022-12-01T15:51:01.383Z,1.23
2022-12-01T15:53:34.850Z,1.35
2022-12-01T15:56:03.190Z,1.40
2022-12-01T15:58:31.485Z,1.28
2022-12-01T16:01:03.086Z,1.28
2022-12-01T16:03:30.062Z,1.44
2022-12-01T16:05:57.210Z,1.36
2022-12-01T16:08:24.923Z,1.28
2022-12-01T16:11:12.295Z,1.33
2022-12-01T16:14:00.488Z,1.41
2022-12-01T16:16:29.814Z,1.32
2022-12-01T16:19:16.623Z,1.25
2022-12-01T16:21:46.036Z,1.40
2022-12-01T16:24:32.664Z,1.33
2022-12-01T16:27:02.070Z,1.33
2022-12-01T16:29:29.823Z,1.41
2022-12-01T16:34:47.962Z,1.31
2022-12-01T16:37:15.227Z,1.27
2022-12-01T16:39:41.869Z,1.43
2022-12-01T16:42:11.477Z,1.35
2022-12-01T16:44:39.786Z,1.31
2022-12-01T16:47:26.573Z,1.32
2022-12-01T16:49:53.131Z,1.41
2022-12-01T16:55:27.731Z,1.32
2022-12-01T16:57:55.471Z,1.41
2022-12-01T17:00:24.345Z,1.38
2022-12-01T17:02:50.911Z,1.29
2022-12-01T17:05:17.403Z,1.30
2022-12-01T17:07:44.085Z,1.46
2022-12-01T17:10:10.977Z,1.38
2022-12-01T17:12:38.242Z,1.30
2022-12-01T17:15:04.866Z,1.31
2022-12-01T17:17:31.471Z,1.48
2022-12-01T17:19:58.099Z,1.39
2022-12-01T17:22:26.978Z,1.31
2022-12-01T17:24:55.540Z,1.33
2022-12-01T17:27:22.950Z,1.43
2022-12-01T17:29:49.383Z,1.34
2022-12-01T17:32:15.785Z,1.31
2022-12-01T17:34:42.298Z,1.36
2022-12-01T17:37:08.761Z,1.45
2022-12-01T17:39:35.257Z,1.40
2022-12-01T17:42:01.757Z,1.32
2022-12-01T17:44:28.477Z,1.33
2022-12-01T17:46:54.984Z,1.44
2022-12-01T17:49:23.244Z,1.42
2022-12-01T17:51:49.861Z,1.48
2022-12-01T17:54:18.494Z,1.58
2022-12-01T17:56:47.233Z,1.58
2022-12-01T17:59:15.822Z,1.53
2022-12-01T18:01:43.498Z,1.43
2022-12-01T18:04:10.073Z,1.49
2022-12-01T18:06:36.619Z,1.53
2022-12-01T18:09:03.161Z,1.51
2022-12-01T18:11:29.603Z,1.43
2022-12-01T18:13:56.781Z,1.42
2022-12-01T18:16:25.185Z,1.54
2022-12-01T18:18:52.129Z,1.46
2022-12-01T18:21:19.690Z,1.44
2022-12-01T18:23:55.206Z,1.42
2022-12-01T18:26:22.377Z,1.51
2022-12-01T18:28:55.923Z,1.46
2022-12-01T18:31:23.078Z,1.54
2022-12-01T18:33:49.918Z,1.57
2022-12-01T18:36:18.232Z,1.65
2022-12-01T18:38:46.866Z,1.65
2022-12-01T18:41:13.923Z,1.58
2022-12-01T18:43:40.947Z,1.55
2022-12-01T18:46:07.963Z,1.66
2022-12-01T18:48:35.133Z,1.47
2022-12-01T18:51:05.405Z,1.41
2022-12-01T18:53:32.048Z,1.40
2022-12-01T18:56:04.519Z,1.53
2022-12-01T18:58:31.398Z,1.47
2022-12-01T19:00:58.205Z,1.42
2022-12-01T19:03:24.769Z,1.37
2022-12-01T19:05:51.390Z,1.44
2022-12-01T19:08:18.012Z,1.45
2022-12-01T19:10:44.507Z,1.38
2022-12-01T19:13:12.289Z,1.43
2022-12-01T19:15:38.802Z,1.50
2022-12-01T19:18:05.357Z,1.54
2022-12-01T19:20:34.035Z,1.53
2022-12-01T19:23:00.637Z,1.53
2022-12-01T19:25:27.152Z,1.52
2022-12-01T19:27:55.838Z,1.60
2022-12-01T19:30:22.464Z,1.53
2022-12-01T19:32:48.933Z,1.47
2022-12-01T19:35:15.358Z,1.47
2022-12-01T19:37:41.926Z,1.58
2022-12-01T19:40:08.697Z,1.47
2022-12-01T19:42:35.106Z,1.42
2022-12-01T19:45:02.178Z,1.43
2022-12-01T19:47:32.386Z,1.56
2022-12-01T19:50:01.002Z,1.49
2022-12-01T19:52:28.618Z,1.37
2022-12-01T19:54:55.167Z,1.31
2022-12-01T19:57:21.643Z,1.43
2022-12-01T19:59:48.040Z,1.43
2022-12-01T20:02:14.563Z,1.41
2022-12-01T20:04:41.084Z,1.42
2022-12-01T20:07:07.537Z,1.48
2022-12-01T20:09:33.943Z,1.55
2022-12-01T20:12:01.286Z,1.49
2022-12-01T20:14:27.687Z,1.41
2022-12-01T20:16:55.321Z,1.34
2022-12-01T20:19:21.826Z,1.47
2022-12-01T20:21:50.610Z,1.43
2022-12-01T20:24:19.997Z,1.41
2022-12-01T20:26:47.741Z,1.34
2022-12-01T20:29:16.719Z,1.45
2022-12-01T20:31:43.357Z,1.47
2022-12-01T20:34:11.526Z,1.44
2022-12-01T20:36:38.929Z,1.44
2022-12-01T20:39:06.241Z,1.53
2022-12-01T20:41:32.812Z,1.53
2022-12-01T20:44:03.877Z,1.53
2022-12-01T20:46:33.803Z,1.53
2022-12-01T20:49:00.765Z,1.55
2022-12-01T20:51:27.460Z,1.61
2022-12-01T20:54:26.402Z,1.59
2022-12-01T20:56:42.390Z,1.57
2022-12-01T20:59:09.218Z,1.60
2022-12-01T21:01:36.059Z,1.69
2022-12-01T21:04:02.659Z,1.71
2022-12-01T21:06:29.333Z,1.69
2022-12-01T21:08:56.073Z,1.66
2022-12-01T21:11:46.400Z,1.68
2022-12-01T21:14:18.490Z,1.77
2022-12-01T21:16:48.375Z,1.69
2022-12-01T21:19:19.059Z,1.69
2022-12-01T21:21:45.666Z,1.76
2022-12-01T21:24:13.702Z,1.81
2022-12-01T21:26:47.229Z,1.76
2022-12-01T21:29:25.189Z,1.71
2022-12-01T21:31:54.671Z,1.66
2022-12-01T21:34:22.637Z,1.67
2022-12-01T21:36:50.403Z,1.72
2022-12-01T21:39:18.770Z,1.77
2022-12-01T21:41:45.207Z,1.66
2022-12-01T21:44:13.701Z,1.53
2022-12-01T21:46:42.499Z,1.50
2022-12-01T21:49:11.129Z,1.63
2022-12-01T21:51:37.651Z,1.73
2022-12-01T21:54:08.858Z,1.79
2022-12-01T21:56:35.451Z,1.84
2022-12-01T21:59:21.810Z,1.40
2022-12-01T22:01:52.065Z,1.08
2022-12-01T22:04:38.857Z,1.00
2022-12-01T22:07:05.298Z,1.26
2022-12-01T22:09:35.383Z,1.16
2022-12-01T22:12:14.116Z,1.00
2022-12-01T22:14:40.894Z,1.07
2022-12-01T22:17:07.290Z,1.26
2022-12-01T22:20:00.166Z,1.31
2022-12-01T22:22:27.707Z,1.06
2022-12-01T22:25:00.095Z,1.00
2022-12-01T22:27:29.400Z,1.06
2022-12-01T22:29:57.332Z,1.17
2022-12-01T22:32:33.797Z,1.07
2022-12-01T22:35:18.176Z,0.90
2022-12-01T22:37:45.834Z,0.89
2022-12-01T22:40:33.861Z,0.99
2022-12-01T22:43:19.288Z,0.99
2022-12-01T22:45:50.250Z,0.88
2022-12-01T22:48:19.677Z,0.96
2022-12-01T22:50:51.337Z,0.88
2022-12-01T22:53:19.664Z,1.01
2022-12-01T22:55:46.150Z,0.94
2022-12-01T22:58:20.378Z,0.80
2022-12-01T23:00:46.771Z,0.80
2022-12-01T23:03:13.296Z,0.81
2022-12-01T23:05:41.040Z,0.97
2022-12-01T23:08:11.205Z,0.82
2022-12-01T23:10:41.542Z,0.72
2022-12-01T23:13:14.678Z,0.71
2022-12-01T23:15:44.124Z,0.71
2022-12-01T23:18:13.647Z,0.87
2022-12-01T23:20:41.091Z,0.85
2022-12-01T23:23:10.810Z,0.77
2022-12-01T23:25:39.277Z,0.78
2022-12-01T23:28:06.962Z,0.76
2022-12-01T23:30:34.046Z,0.97
2022-12-01T23:33:11.158Z,0.93
2022-12-01T23:35:44.886Z,0.86
2022-12-01T23:38:31.498Z,0.82
2022-12-01T23:41:02.329Z,0.89
2022-12-01T23:43:29.915Z,1.07
2022-12-01T23:46:03.050Z,1.01
2022-12-01T23:48:32.853Z,0.97
2022-12-01T23:50:59.395Z,0.94
2022-12-01T23:53:34.995Z,0.93
2022-12-01T23:56:05.498Z,1.09
2022-12-01T23:58:32.091Z,0.99
